createdAt,value
2018-09-09T00:00:57.239Z,19.40
2018-09-09T00:03:26.243Z,19.20
2018-09-09T00:05:55.551Z,19.10
2018-09-09T00:08:24.644Z,18.90
2018-09-09T00:10:53.651Z,18.90
2018-09-09T00:13:22.732Z,19.00
2018-09-09T00:15:51.719Z,19.10
2018-09-09T00:18:20.696Z,19.10
2018-09-09T00:20:49.708Z,19.20
2018-09-09T00:23:18.702Z,18.90
2018-09-09T00:25:47.691Z,18.90
2018-09-09T00:28:16.675Z,19.00
2018-09-09T00:30:45.699Z,19.00
2018-09-09T00:33:14.876Z,19.00
2018-09-09T00:35:43.972Z,18.90
2018-09-09T00:38:12.978Z,18.80
2018-09-09T00:40:42.172Z,18.60
2018-09-09T00:43:11.152Z,18.40
2018-09-09T00:45:40.324Z,18.30
2018-09-09T00:48:09.541Z,18.30
2018-09-09T00:50:43.781Z,18.20
2018-09-09T00:53:17.940Z,18.20
2018-09-09T00:55:46.905Z,18.30
2018-09-09T00:58:15.866Z,18.30
2018-09-09T01:00:49.880Z,18.40
2018-09-09T01:03:18.848Z,18.50
2018-09-09T01:05:47.850Z,18.50
2018-09-09T01:08:16.976Z,18.50
2018-09-09T01:10:46.035Z,18.50
2018-09-09T01:13:15.120Z,18.20
2018-09-09T01:15:44.146Z,18.10
2018-09-09T01:18:13.107Z,18.20
2018-09-09T01:20:42.206Z,18.30
2018-09-09T01:23:11.232Z,18.30
2018-09-09T01:25:40.307Z,18.30
2018-09-09T01:28:09.296Z,18.30
2018-09-09T01:30:38.460Z,18.30
2018-09-09T01:33:07.480Z,18.10
2018-09-09T01:35:36.580Z,18.10
2018-09-09T01:38:05.709Z,18.00
2018-09-09T01:40:34.656Z,18.10
2018-09-09T01:43:03.660Z,18.00
2018-09-09T01:45:32.679Z,18.00
2018-09-09T01:48:01.738Z,18.00
2018-09-09T01:50:30.813Z,17.90
2018-09-09T01:52:59.858Z,17.70
2018-09-09T01:55:28.805Z,17.80
2018-09-09T01:57:57.815Z,17.90
2018-09-09T02:00:26.896Z,18.00
2018-09-09T02:02:55.877Z,17.90
2018-09-09T02:05:24.940Z,17.90
2018-09-09T02:07:54.165Z,17.80
2018-09-09T02:10:23.280Z,17.90
2018-09-09T02:12:52.271Z,17.90
2018-09-09T02:15:21.354Z,17.80
2018-09-09T02:17:50.467Z,17.90
2018-09-09T02:20:19.463Z,17.80
2018-09-09T02:22:48.477Z,17.80
2018-09-09T02:25:17.422Z,17.60
2018-09-09T02:27:46.434Z,17.50
2018-09-09T02:30:15.536Z,17.50
2018-09-09T02:32:44.628Z,17.60
2018-09-09T02:35:13.768Z,17.70
2018-09-09T02:37:42.721Z,17.70
2018-09-09T02:40:11.760Z,17.60
2018-09-09T02:42:40.793Z,17.60
2018-09-09T02:45:09.715Z,17.60
2018-09-09T02:47:38.700Z,17.40
2018-09-09T02:50:07.877Z,17.30
2018-09-09T02:52:36.868Z,17.40
2018-09-09T02:55:06.057Z,17.50
2018-09-09T02:57:35.161Z,17.40
2018-09-09T03:00:04.473Z,17.30
2018-09-09T03:02:33.451Z,17.20
2018-09-09T03:05:02.444Z,17.20
2018-09-09T03:07:31.444Z,17.20
2018-09-09T03:10:00.548Z,17.10
2018-09-09T03:12:29.756Z,17.10
2018-09-09T03:14:58.831Z,17.10
2018-09-09T03:17:27.784Z,17.10
2018-09-09T03:19:56.912Z,17.10
2018-09-09T03:22:26.000Z,17.10
2018-09-09T03:24:55.145Z,16.90
2018-09-09T03:27:24.206Z,16.80
2018-09-09T03:29:53.184Z,16.70
2018-09-09T03:32:22.296Z,16.70
2018-09-09T03:34:51.396Z,16.70
2018-09-09T03:37:20.505Z,16.70
2018-09-09T03:39:49.466Z,16.80
2018-09-09T03:42:18.464Z,16.80
2018-09-09T03:44:47.555Z,16.70
2018-09-09T03:47:16.553Z,16.70
2018-09-09T03:49:45.579Z,16.70
2018-09-09T03:52:14.539Z,16.60
2018-09-09T03:54:43.528Z,16.60
2018-09-09T03:57:12.500Z,16.50
2018-09-09T03:59:41.612Z,16.50
2018-09-09T04:02:10.644Z,16.40
2018-09-09T04:04:39.703Z,16.30
2018-09-09T04:07:08.804Z,16.30
2018-09-09T04:09:37.796Z,16.20
2018-09-09T04:12:07.103Z,16.20
2018-09-09T04:14:36.215Z,16.10
2018-09-09T04:17:05.172Z,16.00
2018-09-09T04:19:34.162Z,15.90
2018-09-09T04:22:03.280Z,15.80
2018-09-09T04:24:32.374Z,15.80
2018-09-09T04:27:01.393Z,15.80
2018-09-09T04:29:30.444Z,15.80
2018-09-09T04:31:59.439Z,15.80
2018-09-09T04:34:28.350Z,15.80
2018-09-09T04:36:57.429Z,15.70
2018-09-09T04:39:26.553Z,15.70
2018-09-09T04:41:55.519Z,15.70
2018-09-09T04:44:24.512Z,15.70
2018-09-09T04:46:53.505Z,15.70
2018-09-09T04:49:22.496Z,15.70
2018-09-09T04:51:51.655Z,15.70
2018-09-09T04:54:20.696Z,15.60
2018-09-09T04:56:49.661Z,15.50
2018-09-09T04:59:18.779Z,15.50
2018-09-09T05:01:47.892Z,15.50
2018-09-09T05:04:16.999Z,15.50
2018-09-09T05:06:46.064Z,15.50
2018-09-09T05:09:15.143Z,15.40
2018-09-09T05:11:44.345Z,15.30
2018-09-09T05:14:13.439Z,15.30
2018-09-09T05:16:42.465Z,15.20
2018-09-09T05:19:11.628Z,15.10
2018-09-09T05:21:40.722Z,15.10
2018-09-09T05:24:09.815Z,15.10
2018-09-09T05:26:38.921Z,15.20
2018-09-09T05:29:08.039Z,15.10
2018-09-09T05:31:37.107Z,15.10
2018-09-09T05:34:06.408Z,15.10
2018-09-09T05:36:35.484Z,15.10
2018-09-09T05:39:07.032Z,15.00
2018-09-09T05:41:36.073Z,14.90
2018-09-09T05:44:05.121Z,14.80
2018-09-09T05:46:34.224Z,14.80
2018-09-09T05:49:03.424Z,14.60
2018-09-09T05:51:32.534Z,14.60
2018-09-09T05:54:01.545Z,14.60
2018-09-09T05:56:30.516Z,14.50
2018-09-09T05:58:59.703Z,14.50
2018-09-09T06:01:28.826Z,14.50
2018-09-09T06:03:57.803Z,14.60
2018-09-09T06:06:27.031Z,14.60
2018-09-09T06:08:56.162Z,14.60
2018-09-09T06:11:25.286Z,14.60
2018-09-09T06:13:54.592Z,14.60
2018-09-09T06:16:23.584Z,14.80
2018-09-09T06:18:52.616Z,14.80
2018-09-09T06:21:21.653Z,14.80
2018-09-09T06:23:50.669Z,14.90
2018-09-09T06:26:19.655Z,14.90
2018-09-09T06:28:48.853Z,14.90
2018-09-09T06:31:17.960Z,14.90
2018-09-09T06:33:46.949Z,15.00
2018-09-09T06:36:16.101Z,15.00
2018-09-09T06:38:45.104Z,15.10
2018-09-09T06:41:14.215Z,15.00
2018-09-09T06:46:01.492Z,15.20
2018-09-09T06:49:25.843Z,15.20
2018-09-09T06:51:54.870Z,15.20
2018-09-09T06:54:23.997Z,15.30
2018-09-09T06:56:53.001Z,15.30
2018-09-09T06:59:22.016Z,15.40
2018-09-09T07:01:51.006Z,15.40
2018-09-09T07:04:20.144Z,15.50
2018-09-09T07:06:49.299Z,15.50
2018-09-09T07:09:18.301Z,15.50
2018-09-09T07:11:47.372Z,15.50
2018-09-09T07:14:16.276Z,15.60
2018-09-09T07:16:45.303Z,15.60
2018-09-09T07:19:14.404Z,15.70
2018-09-09T07:21:43.456Z,15.70
2018-09-09T07:24:12.613Z,15.80
2018-09-09T07:26:41.826Z,15.90
2018-09-09T07:29:10.971Z,15.90
2018-09-09T07:31:41.142Z,16.00
2018-09-09T07:34:10.202Z,16.00
2018-09-09T07:36:39.471Z,16.10
2018-09-09T07:39:08.584Z,16.10
2018-09-09T07:41:37.700Z,16.20
2018-09-09T07:44:06.951Z,16.30
2018-09-09T07:46:36.032Z,16.30
2018-09-09T07:49:05.371Z,16.40
2018-09-09T07:51:34.321Z,16.40
2018-09-09T07:54:03.446Z,16.50
2018-09-09T07:56:32.739Z,16.50
2018-09-09T07:59:01.713Z,16.60
2018-09-09T08:01:30.744Z,16.60
2018-09-09T08:03:59.812Z,16.70
2018-09-09T08:06:28.832Z,16.80
2018-09-09T08:08:57.871Z,16.80
2018-09-09T08:11:31.994Z,16.90
2018-09-09T08:14:01.081Z,17.00
2018-09-09T08:16:30.184Z,17.10
2018-09-09T08:18:59.456Z,17.10
2018-09-09T08:21:28.471Z,17.20
2018-09-09T08:23:57.911Z,17.20
2018-09-09T08:26:26.995Z,17.30
2018-09-09T08:28:56.219Z,17.40
2018-09-09T08:31:25.541Z,17.40
2018-09-09T08:33:54.896Z,17.50
2018-09-09T08:36:24.202Z,17.60
2018-09-09T08:38:53.495Z,17.60
2018-09-09T08:41:22.580Z,17.70
2018-09-09T08:43:51.671Z,17.70
2018-09-09T08:46:20.876Z,17.80
2018-09-09T08:48:49.980Z,17.90
2018-09-09T08:51:19.095Z,17.90
2018-09-09T08:53:48.274Z,18.00
2018-09-09T08:56:17.321Z,18.10
2018-09-09T08:58:46.353Z,18.10
2018-09-09T09:01:15.460Z,18.20
2018-09-09T09:03:44.633Z,18.30
2018-09-09T09:06:13.733Z,18.40
2018-09-09T09:08:42.921Z,18.40
2018-09-09T09:11:12.003Z,18.40
2018-09-09T09:13:41.254Z,18.50
2018-09-09T09:16:10.411Z,18.60
2018-09-09T09:18:39.477Z,18.60
2018-09-09T09:21:08.609Z,18.70
2018-09-09T09:23:37.767Z,18.80
2018-09-09T09:26:06.824Z,18.80
2018-09-09T09:28:36.000Z,18.80
2018-09-09T09:31:05.111Z,18.90
2018-09-09T09:33:34.093Z,19.00
2018-09-09T09:36:03.180Z,19.00
2018-09-09T09:38:32.413Z,19.20
2018-09-09T09:41:01.595Z,19.20
2018-09-09T09:43:30.595Z,19.20
2018-09-09T09:45:59.576Z,19.30
2018-09-09T09:48:28.565Z,19.40
2018-09-09T09:50:57.739Z,19.40
2018-09-09T09:53:26.991Z,19.50
2018-09-09T09:55:56.179Z,19.50
2018-09-09T09:58:25.368Z,19.60
2018-09-09T10:00:59.957Z,19.60
2018-09-09T10:03:29.184Z,19.70
2018-09-09T10:05:58.134Z,19.70
2018-09-09T10:08:27.115Z,19.80
2018-09-09T10:10:56.100Z,19.80
2018-09-09T10:13:25.234Z,20.00
2018-09-09T10:15:54.323Z,20.00
2018-09-09T10:18:23.507Z,20.10
2018-09-09T10:20:52.621Z,20.20
2018-09-09T10:23:21.711Z,20.30
2018-09-09T10:25:50.887Z,20.40
2018-09-09T10:28:20.023Z,20.40
2018-09-09T10:30:49.103Z,20.50
2018-09-09T10:33:18.087Z,20.60
2018-09-09T10:35:47.181Z,20.60
2018-09-09T10:38:16.173Z,20.70
2018-09-09T10:40:45.187Z,20.70
2018-09-09T10:43:14.241Z,20.90
2018-09-09T10:45:43.253Z,20.90
2018-09-09T10:48:12.346Z,21.00
2018-09-09T10:50:41.672Z,21.10
2018-09-09T10:53:10.776Z,21.20
2018-09-09T10:55:39.956Z,21.30
2018-09-09T10:58:09.042Z,21.40
2018-09-09T11:00:38.622Z,21.50
2018-09-09T11:03:07.764Z,21.60
2018-09-09T11:05:36.919Z,21.70
2018-09-09T11:08:06.303Z,21.70
2018-09-09T11:10:35.560Z,21.90
2018-09-09T11:13:04.764Z,22.00
2018-09-09T11:15:33.763Z,22.10
2018-09-09T11:18:02.822Z,22.10
2018-09-09T11:20:32.080Z,22.20
2018-09-09T11:23:01.187Z,22.40
2018-09-09T11:25:30.353Z,22.60
2018-09-09T11:27:59.488Z,22.70
2018-09-09T11:30:28.841Z,22.80
2018-09-09T11:32:57.982Z,22.90
2018-09-09T11:35:27.106Z,23.00
2018-09-09T11:37:56.536Z,23.10
2018-09-09T11:40:25.893Z,23.20
2018-09-09T11:42:54.978Z,23.40
2018-09-09T11:45:24.124Z,23.50
2018-09-09T11:47:53.175Z,23.60
2018-09-09T11:50:22.284Z,23.80
2018-09-09T11:52:51.283Z,23.80
2018-09-09T11:55:20.505Z,24.00
2018-09-09T11:57:49.769Z,24.10
2018-09-09T12:00:18.772Z,24.30
2018-09-09T12:02:47.958Z,24.40
2018-09-09T12:05:17.281Z,24.50
2018-09-09T12:07:46.352Z,24.60
2018-09-09T12:10:15.541Z,24.70
2018-09-09T12:12:44.651Z,24.80
2018-09-09T12:15:14.328Z,24.90
2018-09-09T12:17:43.471Z,25.00
2018-09-09T12:20:12.453Z,25.20
2018-09-09T12:22:41.652Z,25.30
2018-09-09T12:25:10.684Z,25.40
2018-09-09T12:27:38.729Z,25.50
2018-09-09T12:30:08.012Z,25.60
2018-09-09T12:32:36.259Z,25.70
2018-09-09T12:35:04.455Z,25.80
2018-09-09T12:37:32.553Z,26.00
2018-09-09T12:40:00.652Z,26.00
2018-09-09T12:42:28.706Z,26.20
2018-09-09T12:45:02.116Z,26.30
2018-09-09T12:47:35.475Z,26.30
2018-09-09T12:50:03.684Z,26.50
2018-09-09T12:52:32.031Z,26.60
2018-09-09T12:55:00.339Z,26.60
2018-09-09T12:57:28.383Z,26.70
2018-09-09T12:59:56.686Z,26.80
2018-09-09T13:02:24.746Z,27.00
2018-09-09T13:04:52.899Z,27.00
2018-09-09T13:07:21.044Z,27.00
2018-09-09T13:09:49.071Z,27.10
2018-09-09T13:12:17.125Z,27.10
2018-09-09T13:14:45.323Z,27.10
2018-09-09T13:17:13.340Z,27.10
2018-09-09T13:19:41.553Z,27.20
2018-09-09T13:22:09.729Z,27.20
2018-09-09T13:24:37.753Z,27.20
2018-09-09T13:27:05.843Z,27.30
2018-09-09T13:29:33.946Z,27.40
2018-09-09T13:32:02.002Z,27.50
2018-09-09T13:34:30.039Z,27.50
2018-09-09T13:36:58.214Z,27.40
2018-09-09T13:39:26.283Z,27.50
2018-09-09T13:41:54.456Z,27.50
2018-09-09T13:44:22.655Z,27.50
2018-09-09T13:46:51.787Z,27.50
2018-09-09T13:49:21.512Z,27.50
2018-09-09T13:51:50.816Z,27.50
2018-09-09T13:54:18.939Z,27.50
2018-09-09T13:56:47.022Z,27.60
2018-09-09T13:59:15.042Z,27.70
2018-09-09T14:01:44.031Z,27.70
2018-09-09T14:04:12.115Z,27.70
2018-09-09T14:06:40.288Z,27.70
2018-09-09T14:09:09.167Z,27.70
2018-09-09T14:11:37.435Z,27.70
2018-09-09T14:14:05.631Z,27.70
2018-09-09T14:16:34.603Z,27.70
2018-09-09T14:19:03.593Z,27.70
2018-09-09T14:21:32.725Z,27.70
2018-09-09T14:24:01.783Z,27.70
2018-09-09T14:26:30.772Z,27.70
2018-09-09T14:28:59.869Z,27.70
2018-09-09T14:31:28.856Z,27.80
2018-09-09T14:33:57.883Z,27.80
2018-09-09T14:36:26.815Z,27.80
2018-09-09T14:38:55.820Z,27.80
2018-09-09T14:41:24.908Z,27.80
2018-09-09T14:43:54.031Z,27.80
2018-09-09T14:46:23.272Z,27.80
2018-09-09T14:48:52.314Z,27.80
2018-09-09T14:51:21.407Z,27.80
2018-09-09T14:53:50.397Z,27.80
2018-09-09T14:56:19.516Z,27.80
2018-09-09T14:58:48.625Z,27.80
2018-09-09T15:01:17.881Z,27.90
2018-09-09T15:03:47.138Z,27.90
2018-09-09T15:06:16.333Z,27.90
2018-09-09T15:08:45.365Z,28.00
2018-09-09T15:11:14.434Z,28.10
2018-09-09T15:13:43.444Z,28.10
2018-09-09T15:16:12.556Z,28.20
2018-09-09T15:18:41.663Z,28.20
2018-09-09T15:21:10.970Z,28.20
2018-09-09T15:23:40.068Z,28.30
2018-09-09T15:26:09.371Z,28.30
2018-09-09T15:28:39.221Z,28.40
2018-09-09T15:31:08.374Z,28.40
2018-09-09T15:33:37.563Z,28.40
2018-09-09T15:36:07.092Z,28.40
2018-09-09T15:38:36.173Z,28.50
2018-09-09T15:41:08.937Z,28.50
2018-09-09T15:43:38.249Z,28.50
2018-09-09T15:46:07.212Z,28.50
2018-09-09T15:48:36.386Z,28.50
2018-09-09T15:51:05.520Z,28.50
2018-09-09T15:53:34.531Z,28.50
2018-09-09T15:56:03.628Z,28.50
2018-09-09T15:58:32.594Z,28.60
2018-09-09T16:01:01.585Z,28.50
2018-09-09T16:03:30.544Z,28.50
2018-09-09T16:05:59.606Z,28.50
2018-09-09T16:08:28.561Z,28.50
2018-09-09T16:10:57.560Z,28.40
2018-09-09T16:13:26.569Z,28.40
2018-09-09T16:15:55.772Z,28.40
2018-09-09T16:18:24.884Z,28.30
2018-09-09T16:20:53.949Z,28.30
2018-09-09T16:23:23.054Z,28.30
2018-09-09T16:25:52.225Z,28.20
2018-09-09T16:28:21.207Z,28.10
2018-09-09T16:30:50.441Z,28.10
2018-09-09T16:33:19.415Z,28.10
2018-09-09T16:35:48.529Z,28.10
2018-09-09T16:38:17.493Z,28.10
2018-09-09T16:40:46.480Z,28.00
2018-09-09T16:43:15.605Z,27.90
2018-09-09T16:45:44.689Z,27.90
2018-09-09T16:48:13.803Z,27.90
2018-09-09T16:50:42.973Z,27.80
2018-09-09T16:53:12.081Z,27.70
2018-09-09T16:55:41.394Z,27.70
2018-09-09T16:58:10.575Z,27.70
2018-09-09T17:00:39.684Z,27.60
2018-09-09T17:03:08.775Z,27.50
2018-09-09T17:05:37.857Z,27.50
2018-09-09T17:08:07.084Z,27.30
2018-09-09T17:10:36.070Z,27.30
2018-09-09T17:13:05.341Z,27.20
2018-09-09T17:15:34.356Z,27.20
2018-09-09T17:18:03.325Z,27.20
2018-09-09T17:20:32.238Z,27.10
2018-09-09T17:23:01.292Z,27.10
2018-09-09T17:25:30.436Z,27.00
2018-09-09T17:27:59.727Z,26.90
2018-09-09T17:30:28.784Z,26.90
2018-09-09T17:32:57.915Z,26.80
2018-09-09T17:35:26.998Z,26.70
2018-09-09T17:37:56.096Z,26.70
2018-09-09T17:40:25.202Z,26.60
2018-09-09T17:42:54.299Z,26.60
2018-09-09T17:45:23.511Z,26.50
2018-09-09T17:47:52.428Z,26.40
2018-09-09T17:50:21.564Z,26.40
2018-09-09T17:52:50.683Z,26.40
2018-09-09T17:55:19.965Z,26.30
2018-09-09T17:57:49.122Z,26.30
2018-09-09T18:00:18.302Z,26.20
2018-09-09T18:02:47.495Z,26.20
2018-09-09T18:05:16.660Z,26.10
2018-09-09T18:07:45.623Z,26.00
2018-09-09T18:10:14.692Z,26.00
2018-09-09T18:12:43.942Z,25.90
2018-09-09T18:15:13.144Z,25.90
2018-09-09T18:17:42.354Z,25.90
2018-09-09T18:20:11.441Z,25.80
2018-09-09T18:22:40.575Z,25.70
2018-09-09T18:25:09.814Z,25.60
2018-09-09T18:27:39.020Z,25.60
2018-09-09T18:30:08.605Z,25.60
2018-09-09T18:32:37.822Z,25.50
2018-09-09T18:35:07.177Z,25.50
2018-09-09T18:37:36.395Z,25.50
2018-09-09T18:40:05.711Z,25.40
2018-09-09T18:42:34.901Z,25.40
2018-09-09T18:45:04.300Z,25.30
2018-09-09T18:47:33.333Z,25.20
2018-09-09T18:50:02.518Z,25.20
2018-09-09T18:52:31.692Z,25.20
2018-09-09T18:55:00.899Z,25.20
2018-09-09T18:57:30.205Z,25.10
2018-09-09T18:59:59.418Z,25.00
2018-09-09T19:02:28.699Z,25.00
2018-09-09T19:04:57.946Z,25.00
2018-09-09T19:07:27.243Z,24.90
2018-09-09T19:09:56.330Z,24.90
2018-09-09T19:12:25.696Z,24.80
2018-09-09T19:14:54.991Z,24.80
2018-09-09T19:17:24.320Z,24.70
2018-09-09T19:19:52.371Z,24.50
2018-09-09T19:22:20.467Z,24.40
2018-09-09T19:24:48.614Z,24.50
2018-09-09T19:27:16.698Z,24.50
2018-09-09T19:29:45.903Z,24.40
2018-09-09T19:32:14.063Z,24.40
2018-09-09T19:34:42.159Z,24.30
2018-09-09T19:37:10.548Z,24.20
2018-09-09T19:39:38.585Z,24.20
2018-09-09T19:44:36.584Z,24.00
2018-09-09T19:47:05.765Z,23.60
2018-09-09T19:49:34.752Z,23.70
2018-09-09T19:52:02.971Z,23.70
2018-09-09T19:54:31.133Z,23.80
2018-09-09T20:01:55.529Z,23.80
2018-09-09T20:04:24.851Z,23.40
2018-09-09T20:06:54.015Z,23.30
2018-09-09T20:09:23.128Z,23.30
2018-09-09T20:11:52.284Z,23.30
2018-09-09T20:14:20.418Z,23.30
2018-09-09T20:16:48.488Z,23.20
2018-09-09T20:19:16.559Z,23.30
2018-09-09T20:21:44.645Z,23.30
2018-09-09T20:24:13.550Z,23.20
2018-09-09T20:26:42.581Z,23.10
2018-09-09T20:29:11.569Z,23.00
2018-09-09T20:31:40.659Z,23.00
2018-09-09T20:34:09.658Z,23.10
2018-09-09T20:36:38.739Z,23.10
2018-09-09T20:39:07.980Z,23.10
2018-09-09T20:41:36.007Z,23.10
2018-09-09T20:44:04.537Z,23.10
2018-09-09T20:46:32.716Z,23.10
2018-09-09T20:49:00.777Z,23.00
2018-09-09T20:51:28.851Z,23.00
2018-09-09T20:53:57.027Z,23.00
2018-09-09T20:56:25.106Z,23.00
2018-09-09T20:58:53.269Z,22.90
2018-09-09T21:01:21.544Z,22.90
2018-09-09T21:03:49.718Z,22.80
2018-09-09T21:06:17.771Z,22.70
2018-09-09T21:08:45.961Z,22.50
2018-09-09T21:11:14.041Z,22.50
2018-09-09T21:13:42.089Z,22.50
2018-09-09T21:16:10.171Z,22.50
2018-09-09T21:18:39.411Z,22.50
2018-09-09T21:21:08.507Z,22.50
2018-09-09T21:23:37.610Z,22.40
2018-09-09T21:26:07.042Z,22.40
2018-09-09T21:28:36.108Z,22.40
2018-09-09T21:31:04.367Z,22.40
2018-09-09T21:33:32.394Z,22.30
2018-09-09T21:36:00.479Z,22.30
2018-09-09T21:38:28.646Z,22.30
2018-09-09T21:40:56.822Z,22.30
2018-09-09T21:43:24.891Z,22.30
2018-09-09T21:45:52.936Z,22.20
2018-09-09T21:48:21.037Z,22.20
2018-09-09T21:50:49.575Z,22.20
2018-09-09T21:53:17.677Z,22.10
2018-09-09T21:55:45.862Z,22.10
2018-09-09T21:58:15.091Z,21.90
2018-09-09T22:00:49.131Z,21.90
2018-09-09T22:03:18.220Z,21.90
2018-09-09T22:05:47.172Z,21.70
2018-09-09T22:08:16.279Z,21.60
2018-09-09T22:10:45.382Z,21.70
2018-09-09T22:13:14.493Z,21.70
2018-09-09T22:15:43.575Z,21.70
2018-09-09T22:18:12.650Z,21.70
2018-09-09T22:20:41.768Z,21.60
2018-09-09T22:23:10.940Z,21.30
2018-09-09T22:25:40.069Z,21.30
2018-09-09T22:28:09.250Z,21.30
2018-09-09T22:30:38.347Z,21.40
2018-09-09T22:33:07.571Z,21.30
2018-09-09T22:35:36.623Z,21.20
2018-09-09T22:38:05.703Z,21.20
2018-09-09T22:40:34.931Z,21.10
2018-09-09T22:43:03.937Z,20.90
2018-09-09T22:45:32.895Z,20.90
2018-09-09T22:48:01.915Z,21.00
2018-09-09T22:50:30.976Z,21.20
2018-09-09T22:53:00.192Z,21.20
2018-09-09T22:55:29.430Z,21.20
2018-09-09T22:57:58.580Z,21.20
2018-09-09T23:00:27.671Z,21.20
2018-09-09T23:02:56.679Z,21.10
2018-09-09T23:05:25.595Z,21.10
2018-09-09T23:07:54.599Z,21.10
2018-09-09T23:10:23.655Z,21.10
2018-09-09T23:12:52.851Z,21.10
2018-09-09T23:15:27.204Z,21.00
2018-09-09T23:17:56.432Z,20.80
2018-09-09T23:20:25.620Z,20.80
2018-09-09T23:22:54.640Z,20.90
2018-09-09T23:25:24.133Z,20.90
2018-09-09T23:27:53.499Z,20.70
2018-09-09T23:30:22.462Z,20.80
2018-09-09T23:32:51.479Z,20.70
2018-09-09T23:35:20.537Z,20.70
2018-09-09T23:37:49.523Z,20.70
2018-09-09T23:40:18.537Z,20.70
2018-09-09T23:42:47.615Z,20.60
2018-09-09T23:45:16.748Z,20.60
2018-09-09T23:47:45.904Z,20.60
2018-09-09T23:50:15.007Z,20.60
2018-09-09T23:52:44.008Z,20.50
2018-09-09T23:55:13.003Z,20.50
2018-09-09T23:57:42.012Z,20.40
